ROIG

Details ICAO ROIG (ISG)
Name ISHIGAKI
Region Japan
Timezone Asia/Tokyo (UTC+9.0)
Plans Departing 20
Arriving 39
Stats Elevation 93 ft / 28 m (AMSL)
Location 24.344524° 124.186983°
Runways 1
Magnetic Variation 4.562° W
Sunrise 2017-12-17 22:22:07 UTC / 2017-12-18 07:22:07 Local
Sunset 2017-12-18 08:59:59 UTC / 2017-12-18 17:59:59 Local
Advertisement - Login to hide

Runways

ID Width Length Bearing (true) Bearing (mag) Surface Threshold Offset Overrun Length
04 150 ft / 46 m 4,930 ft / 1,503 m 41.99° 46.55° Asphalt 0 ft / 0 m 200 ft / 61 m
22 150 ft / 46 m 4,930 ft / 1,503 m 222.00° 226.56° Asphalt 0 ft / 0 m 200 ft / 61 m

Map

Weather


0- 5 10 15 20 25 30 35+ Temperature / ° C

Clouds and Precipitation
Forecast for 2017-12-18 18:00 UTC. Updated an hour ago

Ground ~20,000 ft ~40,000 ft Winds

METAR

Not found

TAF

TAF ROIG 181107Z 1812/1918 05019KT 9999 -RA FEW030 BKN045 TEMPO 1812/1815 4000 RA TEMPO 1821/1900 02022G32KT 4000 RA TEMPO 1900/1918 02024G34KT

Frequencies

Tower 126.20 MHz TWR
Tower 118.00 MHz TWR
Warning: Do not use this data for real-world aviation or navigation. No guarantee of current accuracy is given.